Time;durP1;ratioP1;P1;durP2;ratioP2;P2;SDS_P1;SDS_P2;PMS_P1;PMS_P2;Temp;Humidity;BMP_temperature;BMP_pressure;BME280_temperature;BME280_humidity;BME280_pressure;Samples;Min_cycle;Max_cycle;Signal;HPM_P1;HPM_P2
2021/12/16 00:09:10;;;;;;;6.80;4.03;;;;;;;1.27;100.00;100132.22;5059822;28;20051;-63
2021/12/16 00:36:05;;;;;;;7.05;3.78;;;;;;;1.13;100.00;100086.59;5070251;28;20105;-62
2021/12/16 00:38:50;;;;;;;6.45;3.80;;;;;;;1.09;100.00;100063.88;5050539;28;20094;-62
2021/12/16 00:41:37;;;;;;;9.75;4.10;;;;;;;1.43;100.00;100071.63;5056154;28;20070;-63
2021/12/16 00:45:00;;;;;;;6.63;3.50;;;;;;;1.34;100.00;100058.38;5069899;28;20373;-62
2021/12/16 00:47:55;;;;;;;7.93;4.38;;;;;;;1.44;100.00;100068.13;5081208;28;20185;-63
2021/12/16 00:56:34;;;;;;;7.82;3.58;;;;;;;1.13;100.00;100050.94;5068244;28;20059;-63
2021/12/16 00:59:24;;;;;;;7.63;4.00;;;;;;;1.34;100.00;100040.09;5069237;28;20059;-66
2021/12/16 01:02:30;;;;;;;7.15;3.70;;;;;;;1.20;100.00;100047.63;5069186;28;20051;-64
2021/12/16 01:05:50;;;;;;;5.85;3.33;;;;;;;1.14;100.00;100047.47;5084593;28;20048;-61
2021/12/16 01:33:42;;;;;;;4.18;2.53;;;;;;;1.19;100.00;99977.94;5051595;28;20047;-61
2021/12/16 01:39:57;;;;;;;3.35;2.17;;;;;;;1.23;100.00;99977.16;5083513;28;20055;-61
2021/12/16 01:57:32;;;;;;;3.97;2.63;;;;;;;1.39;100.00;99921.78;5023080;28;20106;-65
2021/12/16 02:00:45;;;;;;;4.40;2.40;;;;;;;1.56;100.00;99924.69;5023019;28;20878;-64
2021/12/16 02:03:42;;;;;;;4.72;2.28;;;;;;;1.46;100.00;99918.41;5016972;28;20063;-63
2021/12/16 02:09:30;;;;;;;4.97;2.50;;;;;;;1.40;100.00;99904.38;5034336;28;20067;-63
2021/12/16 02:12:41;;;;;;;4.15;2.65;;;;;;;1.19;100.00;99901.34;5031845;28;20060;-64
2021/12/16 02:28:17;;;;;;;5.95;2.83;;;;;;;1.15;100.00;99876.91;5043607;28;20059;-66
2021/12/16 02:34:20;;;;;;;6.18;2.92;;;;;;;1.18;100.00;99878.72;5054945;28;20106;-63
2021/12/16 02:37:00;;;;;;;5.88;2.97;;;;;;;1.03;100.00;99873.19;5067195;28;20611;-60
2021/12/16 02:39:47;;;;;;;4.35;2.35;;;;;;;1.08;100.00;99871.56;5066923;28;20043;-64
2021/12/16 02:42:51;;;;;;;5.13;2.90;;;;;;;1.11;100.00;99869.00;5064032;28;20173;-63
2021/12/16 02:48:51;;;;;;;5.05;2.88;;;;;;;1.17;100.00;99853.44;5019657;28;20051;-65
2021/12/16 02:51:39;;;;;;;3.83;2.40;;;;;;;1.46;100.00;99857.47;4992423;28;20084;-62
2021/12/16 02:54:27;;;;;;;6.18;2.83;;;;;;;1.32;100.00;99854.63;5007404;28;20080;-62
2021/12/16 02:57:14;;;;;;;4.72;2.80;;;;;;;1.48;100.00;99835.72;5020376;28;20051;-62
2021/12/16 02:59:58;;;;;;;3.63;2.40;;;;;;;1.29;100.00;99833.66;5003583;28;20102;-62
2021/12/16 03:02:48;;;;;;;4.70;2.35;;;;;;;1.15;100.00;99819.47;5021194;28;20136;-63
2021/12/16 03:05:34;;;;;;;3.63;2.60;;;;;;;1.06;100.00;99805.41;5004774;28;20084;-63
2021/12/16 03:08:18;;;;;;;;;;;;;;;1.04;100.00;99812.31;5021028;28;20597;-64
2021/12/16 03:11:17;;;;;;;6.68;2.40;;;;;;;0.96;100.00;99806.06;5024125;28;20357;-62
2021/12/16 03:14:23;;;;;;;5.00;3.00;;;;;;;0.90;100.00;99809.44;5019439;28;20076;-63
2021/12/16 03:17:21;;;;;;;4.47;2.90;;;;;;;0.74;100.00;99794.34;5008923;28;20044;-61
2021/12/16 03:20:16;;;;;;;4.40;2.70;;;;;;;0.66;100.00;99772.44;5007287;28;20598;-63
2021/12/16 03:23:24;;;;;;;4.38;2.60;;;;;;;0.76;100.00;99782.22;5008585;28;20087;-68
2021/12/16 03:36:27;;;;;;;3.65;2.30;;;;;;;0.77;100.00;99752.66;5021596;28;20614;-62
2021/12/16 03:38:27;;;;;;;3.22;1.98;;;;;;;0.84;100.00;99748.41;5000904;28;20049;-61
2021/12/16 03:41:15;;;;;;;3.95;2.55;;;;;;;0.75;100.00;99737.84;5017350;28;20060;-63
2021/12/16 03:44:09;;;;;;;4.72;2.78;;;;;;;0.63;100.00;99735.84;5009295;28;20740;-62
2021/12/16 03:46:55;;;;;;;4.68;2.85;;;;;;;0.65;100.00;99728.06;5018110;28;20119;-67
2021/12/16 03:49:39;;;;;;;6.22;2.85;;;;;;;0.71;100.00;99730.81;5007682;28;20048;-63
2021/12/16 03:52:26;;;;;;;4.60;2.53;;;;;;;0.59;100.00;99709.72;5017900;28;20580;-61
2021/12/16 03:55:13;;;;;;;6.05;3.05;;;;;;;0.55;100.00;99713.09;5020032;28;20465;-64
2021/12/16 03:57:59;;;;;;;4.45;2.58;;;;;;;0.71;100.00;99722.97;5007905;28;20542;-66
2021/12/16 04:00:57;;;;;;;5.13;2.50;;;;;;;0.72;100.00;99711.69;5008834;28;20044;-66
2021/12/16 04:03:44;;;;;;;3.60;2.25;;;;;;;0.76;100.00;99713.47;5013548;28;20060;-62
2021/12/16 04:06:32;;;;;;;3.42;2.22;;;;;;;0.86;100.00;99718.03;5011468;28;20900;-63
2021/12/16 04:09:22;;;;;;;4.82;2.55;;;;;;;1.00;100.00;99714.81;5049738;28;20097;-66
2021/12/16 04:12:26;;;;;;;;;;;;;;;1.10;100.00;99718.44;5063205;28;20059;-66
2021/12/16 04:15:17;;;;;;;4.15;2.60;;;;;;;0.99;100.00;99718.22;5051238;28;19927;-58
2021/12/16 04:18:07;;;;;;;5.00;2.65;;;;;;;0.96;100.00;99701.66;5050045;28;20784;-63
2021/12/16 04:20:52;;;;;;;4.53;2.33;;;;;;;0.94;100.00;99704.25;5036796;28;20087;-60
2021/12/16 04:23:37;;;;;;;4.40;2.50;;;;;;;1.11;100.00;99700.16;5060732;28;20156;-61
2021/12/16 04:26:26;;;;;;;5.40;2.70;;;;;;;1.27;100.00;99698.69;5064897;28;20102;-62
2021/12/16 04:29:13;;;;;;;3.90;2.20;;;;;;;1.40;100.00;99677.13;5067247;28;20416;-66
2021/12/16 04:32:00;;;;;;;4.47;2.40;;;;;;;1.50;100.00;99672.03;5064534;28;20044;-62
2021/12/16 04:34:45;;;;;;;6.13;3.17;;;;;;;1.24;100.00;99670.81;5066075;28;20614;-66
2021/12/16 04:37:31;;;;;;;5.25;2.60;;;;;;;1.22;100.00;99664.66;5049619;28;20054;-67
2021/12/16 04:40:18;;;;;;;4.25;2.40;;;;;;;1.22;100.00;99663.81;5065809;28;20263;-65
2021/12/16 04:43:08;;;;;;;5.30;2.72;;;;;;;1.25;100.00;99663.81;5049961;28;20047;-62
2021/12/16 04:46:12;;;;;;;5.25;3.00;;;;;;;1.26;100.00;99660.38;5065147;28;20150;-64
2021/12/16 04:48:59;;;;;;;5.43;2.80;;;;;;;1.37;100.00;99671.84;5062601;28;20047;-66
2021/12/16 04:51:54;;;;;;;4.72;2.47;;;;;;;1.32;100.00;99661.34;5033871;28;20099;-63
2021/12/16 04:54:41;;;;;;;4.50;2.60;;;;;;;1.27;100.00;99660.38;5063612;28;20778;-66
2021/12/16 04:57:27;;;;;;;4.20;2.70;;;;;;;1.33;100.00;99665.72;5065155;28;20546;-66
2021/12/16 05:00:14;;;;;;;4.95;2.85;;;;;;;1.52;100.00;99659.00;5064882;28;20055;-62
2021/12/16 05:03:05;;;;;;;4.57;2.80;;;;;;;1.60;100.00;99639.09;5063055;28;20843;-65
2021/12/16 05:05:57;;;;;;;4.25;2.63;;;;;;;1.52;100.00;99640.72;5053815;28;20059;-63
2021/12/16 05:08:43;;;;;;;4.60;2.58;;;;;;;1.68;100.00;99645.28;5054990;28;20127;-63
2021/12/16 05:11:36;;;;;;;5.15;2.85;;;;;;;1.51;100.00;99641.59;5069294;28;20661;-63
2021/12/16 05:14:22;;;;;;;4.47;2.75;;;;;;;1.71;100.00;99655.78;5081266;28;20051;-64
2021/12/16 05:17:12;;;;;;;4.43;2.58;;;;;;;1.65;100.00;99653.09;5084398;28;20109;-60
2021/12/16 05:20:00;;;;;;;6.90;3.03;;;;;;;1.61;100.00;99646.94;5049411;28;20113;-66
2021/12/16 05:28:34;;;;;;;5.82;3.10;;;;;;;1.62;100.00;99659.16;5055613;28;20100;-66
2021/12/16 05:31:22;;;;;;;5.53;3.03;;;;;;;1.63;100.00;99655.69;5058256;28;20055;-66
2021/12/16 05:34:09;;;;;;;6.30;2.25;;;;;;;1.65;100.00;99646.13;5059852;28;20046;-66
2021/12/16 05:36:56;;;;;;;6.20;2.88;;;;;;;1.61;100.00;99646.06;5074658;28;20083;-60
2021/12/16 05:39:44;;;;;;;5.70;3.38;;;;;;;1.72;100.00;99632.28;5057493;28;20127;-63
2021/12/16 05:42:37;;;;;;;4.13;2.30;;;;;;;1.82;100.00;99626.31;5054218;28;20071;-61
2021/12/16 05:45:24;;;;;;;5.35;3.08;;;;;;;2.03;100.00;99631.81;5064242;28;20051;-64
2021/12/16 05:48:12;;;;;;;3.75;2.25;;;;;;;2.10;100.00;99624.91;5067369;28;20042;-66
2021/12/16 05:51:03;;;;;;;4.95;3.00;;;;;;;1.97;100.00;99620.41;5042581;28;20066;-66
2021/12/16 05:53:50;;;;;;;6.05;2.70;;;;;;;1.80;100.00;99603.63;5068525;28;20414;-64
2021/12/16 05:56:49;;;;;;;4.50;2.85;;;;;;;1.93;100.00;99621.22;5051441;28;20052;-63
2021/12/16 05:59:37;;;;;;;3.88;2.63;;;;;;;2.01;100.00;99614.34;5065640;28;20092;-62
2021/12/16 06:02:21;;;;;;;4.43;2.80;;;;;;;2.05;100.00;99595.22;5069866;28;20654;-60
2021/12/16 06:05:07;;;;;;;10.23;2.90;;;;;;;2.09;100.00;99597.00;5048739;28;20129;-63
2021/12/16 06:07:54;;;;;;;3.80;2.50;;;;;;;2.02;100.00;99589.97;5078534;28;20100;-65
2021/12/16 06:13:33;;;;;;;4.20;2.38;;;;;;;2.10;100.00;99583.94;5070109;28;20568;-64
2021/12/16 06:28:20;;;;;;;3.30;2.22;;;;;;;2.04;100.00;99593.44;5050242;28;20052;-67
2021/12/16 06:31:04;;;;;;;3.20;2.17;;;;;;;2.15;100.00;99589.22;5097242;28;20074;-65
2021/12/16 06:33:49;;;;;;;3.67;2.13;;;;;;;2.10;100.00;99588.31;5058314;28;20051;-63
2021/12/16 06:36:34;;;;;;;4.00;2.10;;;;;;;2.00;100.00;99565.53;5077320;28;20047;-64
2021/12/16 06:39:19;;;;;;;3.35;2.17;;;;;;;2.08;100.00;99580.44;5056770;28;20055;-63
2021/12/16 06:42:25;;;;;;;3.75;2.35;;;;;;;2.03;100.00;99576.00;5062748;28;20157;-62
2021/12/16 06:45:18;;;;;;;3.30;2.10;;;;;;;1.96;100.00;99574.19;5066496;28;20059;-65
2021/12/16 06:48:11;;;;;;;3.55;2.15;;;;;;;2.08;100.00;99582.16;5069953;28;20529;-62
2021/12/16 06:51:05;;;;;;;4.38;2.63;;;;;;;2.12;100.00;99563.03;5044758;28;20047;-64
2021/12/16 06:54:01;;;;;;;2.97;1.98;;;;;;;2.18;100.00;99561.34;5067441;28;20047;-65
2021/12/16 07:00:04;;;;;;;3.72;2.13;;;;;;;1.98;100.00;99548.94;5001667;28;20056;-64
2021/12/16 07:03:02;;;;;;;5.03;1.95;;;;;;;2.05;100.00;99553.38;4970139;28;20882;-63
2021/12/16 07:05:54;;;;;;;3.58;2.45;;;;;;;2.09;100.00;99563.03;5001022;28;20052;-63
2021/12/16 07:08:41;;;;;;;3.33;2.25;;;;;;;2.28;100.00;99550.13;4958358;28;20566;-65
2021/12/16 07:11:26;;;;;;;4.18;2.40;;;;;;;2.10;100.00;99554.31;5002746;28;20057;-65
2021/12/16 07:14:15;;;;;;;3.70;2.40;;;;;;;2.04;100.00;99549.88;4999555;28;20053;-65
2021/12/16 07:17:04;;;;;;;4.28;2.42;;;;;;;2.09;100.00;99550.81;4983440;28;20057;-64
2021/12/16 07:19:48;;;;;;;3.95;2.22;;;;;;;2.32;100.00;99551.91;4987328;28;20072;-62
2021/12/16 07:22:34;;;;;;;3.65;2.30;;;;;;;2.30;100.00;99552.75;5002480;28;20490;-67
2021/12/16 07:25:18;;;;;;;4.75;2.53;;;;;;;2.22;100.00;99564.88;4981623;28;20065;-63
2021/12/16 07:28:07;;;;;;;3.85;2.45;;;;;;;2.36;100.00;99574.59;4983002;28;20190;-63
2021/12/16 07:30:52;;;;;;;3.40;1.88;;;;;;;2.45;100.00;99577.31;5006222;28;20593;-64
2021/12/16 07:33:36;;;;;;;4.43;2.10;;;;;;;2.31;100.00;99572.81;4982642;28;20048;-66
2021/12/16 07:36:21;;;;;;;5.68;2.50;;;;;;;2.51;100.00;99569.53;5018559;28;20089;-63
2021/12/16 07:39:09;;;;;;;6.07;2.75;;;;;;;2.47;100.00;99578.22;5062443;28;20126;-63
2021/12/16 07:41:58;;;;;;;4.35;3.08;;;;;;;2.39;100.00;99566.81;5049559;28;20040;-63
2021/12/16 07:44:43;;;;;;;6.65;3.30;;;;;;;2.31;100.00;99563.25;5079542;28;20128;-64
2021/12/16 07:47:27;;;;;;;5.88;3.95;;;;;;;2.29;100.00;99564.94;5073630;28;20078;-65
2021/12/16 07:50:14;;;;;;;4.65;3.10;;;;;;;2.19;100.00;99562.22;5089031;28;20062;-65
2021/12/16 07:52:58;;;;;;;5.50;3.60;;;;;;;2.09;100.00;99565.63;5071464;28;20051;-63
2021/12/16 07:55:43;;;;;;;7.78;4.07;;;;;;;2.18;100.00;99553.50;5069322;28;20051;-61
2021/12/16 07:58:28;;;;;;;8.90;4.22;;;;;;;2.05;100.00;99542.94;5055458;28;20899;-65
2021/12/16 08:01:13;;;;;;;6.38;3.40;;;;;;;2.14;100.00;99543.00;5081004;28;20479;-66
2021/12/16 08:03:58;;;;;;;5.43;3.60;;;;;;;2.30;100.00;99547.53;5077208;28;20449;-61
2021/12/16 08:06:45;;;;;;;8.25;3.70;;;;;;;2.33;100.00;99547.56;5057537;28;20069;-63
2021/12/16 08:09:32;;;;;;;5.00;3.63;;;;;;;2.30;100.00;99539.69;5070319;28;20522;-61
2021/12/16 08:12:18;;;;;;;7.97;3.70;;;;;;;2.34;100.00;99536.22;5065808;28;20095;-66
2021/12/16 08:15:05;;;;;;;7.70;4.35;;;;;;;2.71;100.00;99531.31;5065702;28;20056;-64
2021/12/16 08:17:50;;;;;;;7.50;4.00;;;;;;;2.74;100.00;99533.06;5056043;28;20082;-64
2021/12/16 08:20:35;;;;;;;7.35;4.20;;;;;;;2.59;100.00;99523.34;5072854;28;20113;-66
2021/12/16 08:23:22;;;;;;;7.60;3.90;;;;;;;2.64;100.00;99521.63;5081524;28;20078;-65
2021/12/16 08:26:07;;;;;;;7.70;4.30;;;;;;;2.80;100.00;99509.53;5072243;28;20055;-65
2021/12/16 08:28:51;;;;;;;8.90;5.68;;;;;;;2.70;100.00;99512.97;5086637;28;20092;-65
2021/12/16 08:31:36;;;;;;;8.13;5.45;;;;;;;2.60;100.00;99509.41;5069827;28;20097;-64
2021/12/16 08:34:21;;;;;;;9.25;5.45;;;;;;;2.48;100.00;99492.72;5036871;28;20063;-65
2021/12/16 08:37:09;;;;;;;8.20;5.22;;;;;;;2.63;100.00;99493.72;5073694;28;20070;-65
2021/12/16 08:39:54;;;;;;;6.93;4.60;;;;;;;2.85;100.00;99485.13;5070551;28;20093;-67
2021/12/16 08:42:40;;;;;;;9.18;5.35;;;;;;;2.77;100.00;99488.59;5053871;28;20173;-63
2021/12/16 08:45:26;;;;;;;;;;;;;;;2.86;100.00;99484.28;5081602;28;20094;-63
2021/12/16 08:48:13;;;;;;;9.32;5.15;;;;;;;2.84;100.00;99480.75;5067855;28;19954;-63
2021/12/16 08:50:58;;;;;;;9.48;4.95;;;;;;;2.66;100.00;99477.16;5050784;28;20098;-62
2021/12/16 08:53:42;;;;;;;8.35;4.28;;;;;;;2.55;100.00;99482.34;5062552;28;20064;-67
2021/12/16 08:56:28;;;;;;;7.95;4.38;;;;;;;2.63;100.00;99477.13;5082337;28;20074;-64
2021/12/16 08:59:14;;;;;;;7.97;4.85;;;;;;;2.91;100.00;99484.28;5084196;28;20093;-63
2021/12/16 09:02:00;;;;;;;8.38;4.32;;;;;;;3.02;100.00;99480.88;5082211;28;20047;-69
2021/12/16 09:04:45;;;;;;;5.07;3.75;;;;;;;2.69;100.00;99453.63;5067892;28;20050;-66
2021/12/16 09:07:30;;;;;;;5.75;3.95;;;;;;;3.02;100.00;99477.38;5084330;28;20519;-65
2021/12/16 09:10:25;;;;;;;6.32;4.25;;;;;;;3.02;100.00;99473.03;5085145;28;20088;-63
2021/12/16 09:13:14;;;;;;;7.90;4.57;;;;;;;2.88;100.00;99479.91;5051895;28;20163;-63
2021/12/16 09:16:05;;;;;;;8.30;5.25;;;;;;;2.73;100.00;99476.34;5082990;28;20059;-64
2021/12/16 09:18:50;;;;;;;9.55;4.82;;;;;;;2.70;100.00;99461.50;5051073;28;20530;-65
2021/12/16 09:21:37;;;;;;;8.18;4.63;;;;;;;2.85;100.00;99458.09;5085499;28;20047;-69
2021/12/16 09:24:21;;;;;;;8.50;4.68;;;;;;;2.72;100.00;99451.00;5081364;28;20570;-66
2021/12/16 09:27:06;;;;;;;9.25;5.30;;;;;;;2.65;100.00;99454.47;5054525;28;20058;-66
2021/12/16 09:29:51;;;;;;;;;;;;;;;2.62;100.00;99459.69;5069398;28;20101;-65
2021/12/16 09:32:36;;;;;;;12.65;7.28;;;;;;;2.63;100.00;99451.84;5089092;28;20325;-64
2021/12/16 09:35:21;;;;;;;10.50;6.95;;;;;;;2.75;100.00;99438.84;5066216;28;20039;-62
2021/12/16 09:38:10;;;;;;;9.10;6.10;;;;;;;3.02;100.00;99431.13;5084681;28;20048;-62
2021/12/16 09:40:57;;;;;;;9.15;5.32;;;;;;;3.11;100.00;99425.03;5083847;28;20058;-65
2021/12/16 09:43:46;;;;;;;6.07;4.18;;;;;;;3.24;100.00;99416.38;5081111;28;20190;-64
2021/12/16 09:46:32;;;;;;;8.88;3.70;;;;;;;3.39;100.00;99414.66;5083821;28;20117;-65
2021/12/16 09:49:20;;;;;;;5.65;3.42;;;;;;;3.30;100.00;99406.78;5083877;28;20055;-63
2021/12/16 09:52:10;;;;;;;6.25;3.47;;;;;;;3.30;100.00;99411.13;5083079;28;20245;-62
2021/12/16 09:54:55;;;;;;;4.93;3.13;;;;;;;3.44;100.00;99417.31;5068523;28;20051;-64
2021/12/16 09:57:40;;;;;;;6.00;3.70;;;;;;;3.64;100.00;99411.22;5067695;28;20050;-64
2021/12/16 10:00:29;;;;;;;7.15;3.60;;;;;;;3.52;100.00;99413.81;5088356;28;20132;-62
2021/12/16 10:03:14;;;;;;;7.90;3.70;;;;;;;3.63;100.00;99416.44;5083925;28;20125;-65
2021/12/16 10:06:02;;;;;;;7.15;4.30;;;;;;;3.33;100.00;99411.16;5065115;28;20051;-65
2021/12/16 10:08:48;;;;;;;8.52;3.95;;;;;;;3.13;100.00;99407.59;5083106;28;20082;-66
2021/12/16 10:11:37;;;;;;;10.45;4.63;;;;;;;2.88;100.00;99404.00;5085482;28;20108;-63
2021/12/16 10:17:24;;;;;;;10.02;6.05;;;;;;;2.81;100.00;99389.13;5048053;28;20059;-68
2021/12/16 10:20:12;;;;;;;13.45;6.70;;;;;;;2.89;100.00;99376.09;5035346;28;20504;-67
2021/12/16 10:23:08;;;;;;;10.70;5.85;;;;;;;2.94;100.00;99367.38;5043103;28;20470;-64
2021/12/16 10:25:58;;;;;;;;;;;;;;;3.12;100.00;99377.91;5062609;28;20046;-64
2021/12/16 10:28:50;;;;;;;8.30;5.50;;;;;;;3.26;100.00;99373.59;5063415;28;19973;-64
2021/12/16 10:31:36;;;;;;;8.95;5.38;;;;;;;3.24;100.00;99370.06;5066385;28;20490;-59
2021/12/16 10:34:21;;;;;;;9.25;5.00;;;;;;;3.10;100.00;99374.41;5062713;28;20093;-62
2021/12/16 10:37:05;;;;;;;6.88;4.75;;;;;;;3.04;100.00;99361.28;5049072;28;20854;-63
2021/12/16 10:39:50;;;;;;;7.03;4.32;;;;;;;3.34;100.00;99357.88;5062874;28;20059;-65
2021/12/16 10:42:47;;;;;;;6.20;4.05;;;;;;;3.52;100.00;99357.91;5064160;28;20396;-64
2021/12/16 10:45:43;;;;;;;6.28;3.60;;;;;;;3.66;100.00;99362.28;5069429;28;20358;-65
2021/12/16 10:48:32;;;;;;;5.65;4.03;;;;;;;3.53;100.00;99349.19;5065783;28;20817;-64
2021/12/16 10:51:33;;;;;;;5.72;3.53;;;;;;;3.69;100.00;99353.56;5045535;28;20530;-64
2021/12/16 10:54:22;;;;;;;8.50;4.05;;;;;;;3.27;100.00;99356.09;5046740;28;20094;-64
2021/12/16 10:57:12;;;;;;;5.22;3.30;;;;;;;3.27;100.00;99349.13;5062810;28;20101;-64
2021/12/16 11:00:08;;;;;;;7.00;3.97;;;;;;;3.21;100.00;99345.63;5061899;28;20492;-63
2021/12/16 11:02:53;;;;;;;6.18;3.03;;;;;;;3.39;100.00;99343.03;5061751;28;20063;-65
2021/12/16 11:05:37;;;;;;;4.63;3.13;;;;;;;3.72;100.00;99345.69;5063038;28;20139;-63
2021/12/16 11:08:22;;;;;;;6.70;3.40;;;;;;;3.89;100.00;99341.31;5062564;28;20110;-65
2021/12/16 11:11:12;;;;;;;4.85;3.05;;;;;;;3.64;100.00;99339.56;5065068;28;20052;-63
2021/12/16 11:14:05;;;;;;;5.50;3.30;;;;;;;3.52;100.00;99331.72;5070269;28;20088;-67
2021/12/16 11:17:03;;;;;;;6.75;2.55;;;;;;;3.39;100.00;99328.19;5071822;28;20113;-62
2021/12/16 11:19:59;;;;;;;5.10;2.90;;;;;;;3.40;100.00;99322.06;5059912;28;20101;-63
2021/12/16 11:22:45;;;;;;;4.80;2.95;;;;;;;3.47;100.00;99304.59;5072270;28;20081;-61
2021/12/16 11:25:44;;;;;;;5.00;3.05;;;;;;;3.53;100.00;99313.34;5087974;28;20047;-61
2021/12/16 11:28:31;;;;;;;6.22;3.28;;;;;;;3.46;100.00;99298.50;5059568;28;20458;-59
2021/12/16 11:31:25;;;;;;;6.07;2.90;;;;;;;3.64;100.00;99308.13;5057333;28;20682;-64
2021/12/16 11:34:10;;;;;;;5.10;2.78;;;;;;;3.62;100.00;99296.75;5070579;28;20689;-66
2021/12/16 11:36:57;;;;;;;6.63;3.17;;;;;;;3.77;100.00;99302.84;5069921;28;20047;-59
2021/12/16 11:39:42;;;;;;;4.50;2.92;;;;;;;3.66;100.00;99285.38;5066762;28;20108;-59
2021/12/16 11:42:27;;;;;;;6.25;2.88;;;;;;;3.77;100.00;99284.50;5070365;28;20092;-58
2021/12/16 11:45:33;;;;;;;5.65;3.17;;;;;;;3.86;100.00;99278.38;5085347;28;20120;-61
2021/12/16 11:48:29;;;;;;;6.47;3.97;;;;;;;3.55;100.00;99274.91;5072327;28;20439;-68
2021/12/16 11:51:26;;;;;;;5.43;3.17;;;;;;;3.38;100.00;99268.81;5086465;28;20059;-68
2021/12/16 11:54:26;;;;;;;4.50;2.88;;;;;;;3.74;100.00;99273.16;5082353;28;20047;-62
2021/12/16 11:57:20;;;;;;;9.63;3.35;;;;;;;3.94;100.00;99272.25;5072088;28;20047;-60
2021/12/16 12:00:20;;;;;;;7.28;2.92;;;;;;;3.87;100.00;99274.88;5069369;28;20129;-61
2021/12/16 12:03:14;;;;;;;4.07;2.72;;;;;;;3.81;100.00;99274.91;5068104;28;20545;-65
2021/12/16 12:05:58;;;;;;;5.22;3.00;;;;;;;3.74;100.00;99262.66;5071801;28;20415;-63
2021/12/16 12:08:47;;;;;;;7.57;3.72;;;;;;;3.80;100.00;99270.53;5085161;28;20129;-61
2021/12/16 12:11:35;;;;;;;5.85;3.92;;;;;;;3.70;100.00;99271.41;5068960;28;20419;-71
2021/12/16 12:14:20;;;;;;;11.43;6.20;;;;;;;3.59;100.00;99273.16;5054800;28;20046;-62
2021/12/16 12:17:19;;;;;;;10.50;6.45;;;;;;;3.71;100.00;99267.91;5083080;28;20375;-66
2021/12/16 12:20:05;;;;;;;8.77;6.28;;;;;;;3.50;100.00;99252.19;5068472;28;21450;-67
2021/12/16 12:22:52;;;;;;;8.75;5.90;;;;;;;3.72;100.00;99267.91;5086011;28;20112;-61
2021/12/16 12:25:36;;;;;;;8.18;6.00;;;;;;;3.82;100.00;99272.28;5067743;28;20418;-67
2021/12/16 12:28:21;;;;;;;7.40;5.22;;;;;;;3.95;100.00;99275.72;5070630;28;20042;-60
2021/12/16 12:31:05;;;;;;;6.70;5.13;;;;;;;3.97;100.00;99268.75;5069452;28;20858;-61
2021/12/16 12:33:50;;;;;;;7.00;4.47;;;;;;;3.75;100.00;99265.28;5072426;28;20051;-58
2021/12/16 12:36:37;;;;;;;9.10;4.18;;;;;;;3.62;100.00;99268.81;5070974;28;20412;-58
2021/12/16 12:39:26;;;;;;;7.25;3.78;;;;;;;3.60;100.00;99269.69;5077222;28;20093;-64
2021/12/16 12:42:13;;;;;;;6.05;3.90;;;;;;;3.38;100.00;99253.09;5070262;28;20135;-58
2021/12/16 12:44:57;;;;;;;6.30;3.90;;;;;;;3.54;100.00;99252.22;5082415;28;20058;-58
2021/12/16 12:47:46;;;;;;;5.93;3.17;;;;;;;3.75;100.00;99257.41;5055500;28;20113;-61
2021/12/16 12:50:35;;;;;;;8.25;3.35;;;;;;;3.95;100.00;99260.00;5085948;28;20051;-58
2021/12/16 12:53:25;;;;;;;7.22;3.20;;;;;;;3.89;100.00;99257.41;5083140;28;20139;-59
2021/12/16 12:56:23;;;;;;;6.45;3.30;;;;;;;3.89;100.00;99253.03;5087808;28;20079;-54
2021/12/16 12:59:15;;;;;;;7.93;4.07;;;;;;;3.80;100.00;99242.56;5068845;28;20047;-60
2021/12/16 13:02:01;;;;;;;6.10;3.45;;;;;;;3.53;100.00;99234.72;5064971;28;20043;-57
2021/12/16 13:05:03;;;;;;;7.85;3.40;;;;;;;3.53;100.00;99226.84;5043139;28;20070;-59
2021/12/16 13:08:07;;;;;;;7.53;3.80;;;;;;;3.75;100.00;99228.59;5071072;28;20055;-54
2021/12/16 13:10:58;;;;;;;7.65;5.20;;;;;;;3.53;100.00;99216.38;5043902;28;20043;-61
2021/12/16 13:14:20;;;;;;;6.70;4.90;;;;;;;3.53;100.00;99219.00;5061143;28;20204;-59
2021/12/16 13:17:32;;;;;;;7.60;5.03;;;;;;;3.55;100.00;99221.63;5065807;28;20254;-63
2021/12/16 13:23:30;;;;;;;9.82;3.88;;;;;;;3.62;100.00;99218.13;5071001;28;20051;-69
2021/12/16 13:29:38;;;;;;;7.70;2.95;;;;;;;3.75;100.00;99220.72;4994301;28;20053;-57
2021/12/16 13:32:29;;;;;;;3.90;2.70;;;;;;;3.69;100.00;99218.09;5017036;28;20990;-56
2021/12/16 13:38:08;;;;;;;6.32;3.00;;;;;;;3.93;100.00;99204.06;5019736;28;20528;-58
2021/12/16 13:41:06;;;;;;;6.78;2.97;;;;;;;3.97;100.00;99203.19;4963918;28;20061;-55
2021/12/16 13:43:58;;;;;;;7.32;2.92;;;;;;;3.98;100.00;99197.94;5005256;28;20061;-54
2021/12/16 13:47:30;;;;;;;8.60;3.97;;;;;;;3.89;100.00;99194.47;5024662;28;20110;-65
2021/12/16 14:03:19;;;;;;;5.03;2.83;;;;;;;3.95;100.00;99186.56;4939880;29;20061;-59
2021/12/16 14:08:54;;;;;;;4.30;2.60;;;;;;;3.78;100.00;99183.13;4965401;28;20057;-56
2021/12/16 14:17:52;;;;;;;4.07;2.55;;;;;;;4.04;100.00;99171.69;4982838;28;20888;-58
2021/12/16 14:23:49;;;;;;;4.72;2.53;;;;;;;4.04;100.00;99155.94;4984683;28;20096;-63
2021/12/16 14:26:49;;;;;;;3.55;2.40;;;;;;;3.96;100.00;99152.47;5039141;28;20079;-61
2021/12/16 14:36:10;;;;;;;7.88;3.97;;;;;;;3.55;100.00;99129.88;4990364;28;20071;-58
2021/12/16 14:39:08;;;;;;;3.80;3.00;;;;;;;3.68;100.00;99132.47;4992521;28;20060;-55
2021/12/16 14:48:07;;;;;;;5.50;2.45;;;;;;;3.63;100.00;99141.22;4986786;28;20100;-66
2021/12/16 14:51:03;;;;;;;3.45;2.15;;;;;;;3.59;100.00;99144.72;4986419;28;20111;-65
2021/12/16 14:53:54;;;;;;;4.72;2.20;;;;;;;3.70;100.00;99135.09;4983173;28;20465;-58
2021/12/16 14:56:40;;;;;;;4.43;2.40;;;;;;;3.57;100.00;99136.88;4986799;28;20052;-58
2021/12/16 14:59:28;;;;;;;4.20;2.05;;;;;;;3.30;100.00;99134.31;4987247;28;20052;-62
2021/12/16 15:02:16;;;;;;;4.70;2.55;;;;;;;3.27;100.00;99128.19;4989394;28;20101;-59
2021/12/16 15:05:01;;;;;;;3.83;1.98;;;;;;;3.21;100.00;99113.34;4988387;28;20417;-58
2021/12/16 15:07:48;;;;;;;4.97;2.22;;;;;;;3.29;100.00;99122.06;5002749;28;20065;-55
2021/12/16 15:10:33;;;;;;;3.65;2.15;;;;;;;3.25;100.00;99103.78;4990558;28;20180;-62
2021/12/16 15:13:41;;;;;;;7.13;2.53;;;;;;;3.20;100.00;99115.97;5056110;28;20110;-65
2021/12/16 15:16:49;;;;;;;4.07;2.88;;;;;;;3.22;100.00;99115.13;5074907;28;20051;-53
2021/12/16 15:38:42;;;;;;;4.38;2.53;;;;;;;3.56;100.00;99108.06;4962062;28;20089;-57
2021/12/16 15:44:30;;;;;;;4.88;2.83;;;;;;;3.48;100.00;99109.84;4984498;28;20052;-57
2021/12/16 15:47:15;;;;;;;4.82;3.03;;;;;;;3.50;100.00;99106.34;4979004;28;20096;-57
2021/12/16 15:49:59;;;;;;;;;;;;;;;3.66;100.00;99107.16;4991648;28;20060;-57
2021/12/16 15:52:48;;;;;;;3.75;2.55;;;;;;;3.52;100.00;99096.69;4985195;28;19929;-57
2021/12/16 15:55:36;;;;;;;3.40;2.50;;;;;;;3.60;100.00;99105.41;4970197;28;20422;-59
2021/12/16 15:58:28;;;;;;;4.13;2.85;;;;;;;3.61;100.00;99103.69;4986073;28;20054;-54
2021/12/16 16:01:27;;;;;;;5.78;2.67;;;;;;;3.55;100.00;99095.81;4989777;28;20077;-57
2021/12/16 16:04:34;;;;;;;4.60;3.08;;;;;;;3.60;100.00;99080.97;4987972;28;20552;-54
2021/12/16 16:07:19;;;;;;;4.82;2.45;;;;;;;3.41;100.00;99076.66;4972687;28;20053;-58
2021/12/16 16:10:07;;;;;;;8.63;2.85;;;;;;;3.57;100.00;99080.97;4985987;28;20229;-59
2021/12/16 16:12:53;;;;;;;5.25;2.95;;;;;;;3.70;100.00;99085.28;5068959;28;20135;-55
2021/12/16 16:15:39;;;;;;;6.80;3.20;;;;;;;3.51;100.00;99080.97;5081917;28;20050;-60
2021/12/16 16:21:21;;;;;;;6.78;2.97;;;;;;;3.35;100.00;99074.03;5110217;28;20426;-68
2021/12/16 16:24:11;;;;;;;6.97;3.42;;;;;;;3.37;100.00;99067.06;5057842;28;20059;-60
2021/12/16 16:27:01;;;;;;;8.43;3.72;;;;;;;3.39;100.00;99055.69;5073439;28;20425;-58
2021/12/16 16:29:59;;;;;;;6.80;3.67;;;;;;;3.66;100.00;99073.97;5070752;28;20055;-64
2021/12/16 16:33:14;;;;;;;8.93;4.95;;;;;;;3.55;100.00;99070.50;5087847;28;20059;-55
2021/12/16 16:36:04;;;;;;;7.82;4.60;;;;;;;3.42;100.00;99066.19;5067303;28;20205;-55
2021/12/16 16:38:54;;;;;;;9.70;5.63;;;;;;;3.53;100.00;99063.53;5026146;28;20531;-65
2021/12/16 16:41:54;;;;;;;7.00;4.35;;;;;;;3.59;100.00;99066.09;5068439;28;20098;-57
2021/12/16 16:44:44;;;;;;;8.32;4.25;;;;;;;3.52;100.00;99067.88;5054176;28;20534;-57
2021/12/16 16:47:37;;;;;;;10.07;4.95;;;;;;;3.56;100.00;99063.53;5070588;28;20066;-58
2021/12/16 16:50:24;;;;;;;7.60;5.00;;;;;;;3.47;100.00;99061.78;5087343;28;20067;-59
2021/12/16 16:53:10;;;;;;;11.60;6.57;;;;;;;3.53;100.00;99055.66;5081793;28;20087;-63